createdAt,value
2022-12-14T00:00:49.144Z,97563.03
2022-12-14T00:05:06.584Z,97567.16
2022-12-14T00:09:23.458Z,97568.13
2022-12-14T00:13:42.376Z,97567.13
2022-12-14T00:18:00.219Z,97567.53
2022-12-14T00:22:17.296Z,97565.16
2022-12-14T00:26:34.344Z,97566.34
2022-12-14T00:30:58.689Z,97565.28
2022-12-14T00:35:17.899Z,97560.81
2022-12-14T00:39:34.884Z,97559.09
2022-12-14T00:43:51.845Z,97559.41
2022-12-14T00:48:08.901Z,97555.41
2022-12-14T00:52:25.703Z,97547.19
2022-12-14T00:56:43.039Z,97542.44
2022-12-14T01:01:03.424Z,97542.03
2022-12-14T01:05:20.550Z,97543.34
2022-12-14T01:09:37.462Z,97531.91
2022-12-14T01:13:56.518Z,97536.25
2022-12-14T01:18:13.381Z,97538.03
2022-12-14T01:22:30.525Z,97539.06
2022-12-14T01:26:47.411Z,97529.13
2022-12-14T01:31:11.389Z,97534.47
2022-12-14T01:35:28.523Z,97534.25
2022-12-14T01:39:46.544Z,97520.59
2022-12-14T01:44:23.680Z,97520.03
2022-12-14T01:48:40.632Z,97515.63
2022-12-14T01:53:06.142Z,97514.84
2022-12-14T01:57:35.926Z,97511.22
2022-12-14T02:01:54.205Z,97492.66
2022-12-14T02:06:26.801Z,97513.50
2022-12-14T02:10:45.507Z,97503.47
2022-12-14T02:15:03.201Z,97496.16
2022-12-14T02:19:22.583Z,97496.72
2022-12-14T02:23:50.623Z,97498.72
2022-12-14T02:28:19.896Z,97494.31
2022-12-14T02:33:54.165Z,97491.94
2022-12-14T02:38:44.507Z,97495.50
2022-12-14T02:43:18.273Z,97481.06
2022-12-14T02:48:01.226Z,97470.22
2022-12-14T02:52:42.718Z,97469.63
2022-12-14T02:57:17.850Z,97472.78
2022-12-14T03:01:36.962Z,97473.94
2022-12-14T03:05:59.297Z,97466.81
2022-12-14T03:10:37.401Z,97463.44
2022-12-14T03:14:56.207Z,97462.84
2022-12-14T03:19:23.780Z,97463.28
2022-12-14T03:23:44.083Z,97465.25
2022-12-14T03:28:23.366Z,97453.78
2022-12-14T03:32:48.040Z,97462.25
2022-12-14T03:37:20.746Z,97459.88
2022-12-14T03:42:05.133Z,97472.31
2022-12-14T03:46:46.328Z,97475.28
2022-12-14T03:51:34.610Z,97476.53
2022-12-14T03:56:13.194Z,97464.47
2022-12-14T04:00:35.694Z,97471.22
2022-12-14T04:05:12.537Z,97468.41
2022-12-14T04:09:57.973Z,97455.56
2022-12-14T04:14:41.278Z,97455.13
2022-12-14T04:19:06.486Z,97440.53
2022-12-14T04:23:51.725Z,97436.34
2022-12-14T04:28:36.044Z,97434.34
2022-12-14T04:32:58.489Z,97432.41
2022-12-14T04:37:19.827Z,97434.97
2022-12-14T04:41:43.868Z,97431.81
2022-12-14T04:46:35.165Z,97425.31
2022-12-14T04:51:15.367Z,97420.56
2022-12-14T04:55:54.142Z,97417.75
2022-12-14T05:00:12.290Z,97408.66
2022-12-14T05:05:25.290Z,97395.22
2022-12-14T05:10:03.812Z,97401.16
2022-12-14T05:14:40.020Z,97400.56
2022-12-14T05:18:57.358Z,97385.56
2022-12-14T05:23:15.050Z,97379.44
2022-12-14T05:27:32.173Z,97377.81
2022-12-14T05:31:49.587Z,97370.25
2022-12-14T05:36:07.467Z,97373.63
2022-12-14T05:40:24.270Z,97369.28
2022-12-14T05:44:41.203Z,97361.06
2022-12-14T05:48:58.027Z,97374.75
2022-12-14T05:53:15.086Z,97371.72
2022-12-14T05:57:32.238Z,97371.13
2022-12-14T06:01:50.717Z,97373.13
2022-12-14T06:06:09.288Z,97368.94
2022-12-14T06:10:26.330Z,97369.94
2022-12-14T06:14:43.170Z,97372.53
2022-12-14T06:19:03.782Z,97367.97
2022-12-14T06:23:20.783Z,97359.66
2022-12-14T06:27:37.796Z,97356.66
2022-12-14T06:31:54.669Z,97356.09
2022-12-14T06:36:30.400Z,97345.22
2022-12-14T06:40:47.289Z,97347.97
2022-12-14T06:45:04.808Z,97348.19
2022-12-14T06:49:22.423Z,97352.94
2022-12-14T06:53:39.309Z,97356.69
2022-12-14T06:57:56.722Z,97344.25
2022-12-14T07:02:13.723Z,97353.34
2022-12-14T07:06:36.792Z,97341.66
2022-12-14T07:10:58.910Z,97339.69
2022-12-14T07:15:19.329Z,97336.91
2022-12-14T07:19:36.450Z,97348.78
2022-12-14T07:23:53.878Z,97334.94
2022-12-14T07:28:10.735Z,97324.00
2022-12-14T07:32:27.766Z,97317.50
2022-12-14T07:36:44.644Z,97316.31
2022-12-14T07:41:06.865Z,97326.22
2022-12-14T07:45:23.715Z,97325.75
2022-12-14T07:49:44.079Z,97316.81
2022-12-14T07:54:02.037Z,97320.03
2022-12-14T07:58:19.105Z,97307.34
2022-12-14T08:02:36.321Z,97310.75
2022-12-14T08:06:53.688Z,97313.50
2022-12-14T08:11:12.090Z,97327.69
2022-12-14T08:15:28.937Z,97317.38
2022-12-14T08:19:46.220Z,97308.13
2022-12-14T08:24:03.403Z,97309.88
2022-12-14T08:28:21.687Z,97304.31
2022-12-14T08:32:38.579Z,97306.31
2022-12-14T08:36:55.711Z,97303.53
2022-12-14T08:41:16.782Z,97298.59
2022-12-14T08:45:33.953Z,97312.06
2022-12-14T08:49:51.028Z,97301.56
2022-12-14T08:54:07.875Z,97303.50
2022-12-14T08:58:25.474Z,97312.84
2022-12-14T09:02:42.646Z,97301.94
2022-12-14T09:06:59.943Z,97284.72
2022-12-14T09:11:19.363Z,97283.53
2022-12-14T09:15:36.513Z,97289.25
2022-12-14T09:19:53.504Z,97281.91
2022-12-14T09:24:10.472Z,97280.97
2022-12-14T09:28:28.226Z,97276.63
2022-12-14T09:32:50.581Z,97264.75
2022-12-14T09:37:07.842Z,97261.84
2022-12-14T09:41:34.395Z,97263.38
2022-12-14T09:45:56.307Z,97242.03
2022-12-14T09:50:18.224Z,97235.50
2022-12-14T09:54:38.568Z,97240.84
2022-12-14T09:58:58.989Z,97225.06
2022-12-14T10:04:00.128Z,97222.47
2022-12-14T10:08:42.027Z,97228.19
2022-12-14T10:13:32.616Z,97226.81
2022-12-14T10:18:57.759Z,97222.06
2022-12-14T10:23:05.281Z,97233.53
2022-12-14T10:27:26.273Z,97222.47
2022-12-14T10:32:06.843Z,97218.91
2022-12-14T10:36:35.301Z,97204.28
2022-12-14T10:41:00.396Z,97205.44
2022-12-14T10:45:41.601Z,97202.66
2022-12-14T10:50:05.557Z,97182.63
2022-12-14T10:54:34.029Z,97171.00
2022-12-14T10:59:18.771Z,97179.53
2022-12-14T11:03:35.690Z,97167.50
2022-12-14T11:07:52.878Z,97160.66
2022-12-14T11:12:24.314Z,97161.38
2022-12-14T11:16:42.021Z,97149.03
2022-12-14T11:21:03.029Z,97150.75
2022-12-14T11:25:47.024Z,97134.16
2022-12-14T11:30:05.618Z,97126.25
2022-12-14T11:34:29.795Z,97134.09
2022-12-14T11:39:02.377Z,97133.06
2022-12-14T11:43:35.385Z,97133.44
2022-12-14T11:48:15.478Z,97122.75
2022-12-14T11:52:38.443Z,97116.81
2022-12-14T11:57:07.104Z,97107.75
2022-12-14T12:01:26.760Z,97103.66
2022-12-14T12:05:46.691Z,97092.81
2022-12-14T12:10:49.887Z,97086.22
2022-12-14T12:15:24.439Z,97077.13
2022-12-14T12:19:41.661Z,97062.16
2022-12-14T12:25:00.975Z,97049.53
2022-12-14T12:29:36.886Z,97037.19
2022-12-14T12:34:01.985Z,97024.63
2022-12-14T12:38:35.990Z,97001.41
2022-12-14T12:43:19.569Z,96995.66
2022-12-14T12:47:50.912Z,97002.88
2022-12-14T12:52:26.894Z,96996.56
2022-12-14T12:56:49.346Z,96992.41
2022-12-14T13:01:31.244Z,96979.59
2022-12-14T13:05:49.446Z,96972.16
2022-12-14T13:10:32.616Z,96954.53
2022-12-14T13:14:51.540Z,96943.63
2022-12-14T13:24:16.850Z,96938.31
2022-12-14T13:28:52.154Z,96927.63
2022-12-14T13:33:54.740Z,96922.19
2022-12-14T13:38:52.352Z,96924.34
2022-12-14T13:43:27.337Z,96915.09
2022-12-14T13:47:55.616Z,96891.53
2022-12-14T13:52:40.286Z,96884.00
2022-12-14T13:57:12.383Z,96866.91
2022-12-14T14:01:48.016Z,96847.50
2022-12-14T14:06:12.100Z,96840.34
2022-12-14T14:10:39.959Z,96831.91
2022-12-14T14:15:08.694Z,96831.72
2022-12-14T14:19:28.944Z,96834.69
2022-12-14T14:24:06.558Z,96826.50
2022-12-14T14:28:30.454Z,96829.22
2022-12-14T14:32:47.694Z,96820.16
2022-12-14T14:37:20.018Z,96810.53
2022-12-14T14:41:41.894Z,96798.94
2022-12-14T14:46:06.386Z,96789.69
2022-12-14T14:50:33.261Z,96784.59
2022-12-14T14:55:21.660Z,96790.19
2022-12-14T14:59:50.828Z,96806.66
2022-12-14T15:04:23.831Z,96812.91
2022-12-14T15:08:56.843Z,96808.81
2022-12-14T15:13:33.832Z,96788.75
2022-12-14T15:17:51.232Z,96758.44
2022-12-14T15:22:13.711Z,96762.94
2022-12-14T15:26:34.844Z,96754.63
2022-12-14T15:30:51.875Z,96752.69
2022-12-14T15:35:17.436Z,96736.38
2022-12-14T15:39:43.660Z,96744.78
2022-12-14T15:44:01.216Z,96740.22
2022-12-14T15:48:35.140Z,96750.25
2022-12-14T15:52:56.405Z,96721.91
2022-12-14T15:57:19.281Z,96710.31
2022-12-14T16:01:54.173Z,96712.91
2022-12-14T16:06:13.464Z,96708.34
2022-12-14T16:10:33.162Z,96690.50
2022-12-14T16:14:59.959Z,96687.16
2022-12-14T16:19:28.930Z,96689.94
2022-12-14T16:23:50.239Z,96684.28
2022-12-14T16:28:35.933Z,96684.19
2022-12-14T16:33:07.254Z,96679.78
2022-12-14T16:37:32.803Z,96676.06
2022-12-14T16:42:01.252Z,96671.88
2022-12-14T16:46:18.553Z,96668.97
2022-12-14T16:55:19.978Z,96654.84
2022-12-14T16:59:44.262Z,96654.66
2022-12-14T17:04:05.806Z,96646.03
2022-12-14T17:08:23.234Z,96643.63
2022-12-14T17:12:40.380Z,96634.16
2022-12-14T17:17:01.890Z,96637.63
2022-12-14T17:21:27.479Z,96654.22
2022-12-14T17:25:47.896Z,96656.94
2022-12-14T17:30:06.176Z,96654.19
2022-12-14T17:34:24.289Z,96661.75
2022-12-14T17:38:41.750Z,96653.69
2022-12-14T17:42:59.057Z,96650.00
2022-12-14T17:47:16.250Z,96652.22
2022-12-14T17:51:41.870Z,96640.16
2022-12-14T17:55:59.602Z,96620.63
2022-12-14T18:00:38.985Z,96624.66
2022-12-14T18:04:56.050Z,96620.47
2022-12-14T18:09:13.178Z,96644.53
2022-12-14T18:13:34.692Z,96635.66
2022-12-14T18:17:51.924Z,96605.03
2022-12-14T18:22:11.122Z,96596.38
2022-12-14T18:26:28.147Z,96586.69
2022-12-14T18:31:00.841Z,96599.13
2022-12-14T18:35:24.681Z,96581.53
2022-12-14T18:39:41.923Z,96584.06
2022-12-14T18:44:00.662Z,96569.16
2022-12-14T18:48:17.732Z,96582.91
2022-12-14T18:52:34.739Z,96579.19
2022-12-14T18:56:51.991Z,96582.16
2022-12-14T19:01:16.306Z,96579.03
2022-12-14T19:05:33.896Z,96557.88
2022-12-14T19:09:51.107Z,96552.19
2022-12-14T19:14:08.648Z,96537.59
2022-12-14T19:18:25.736Z,96530.28
2022-12-14T19:22:43.499Z,96532.31
2022-12-14T19:27:00.626Z,96506.22
2022-12-14T19:31:17.966Z,96507.66
2022-12-14T19:35:35.044Z,96506.09
2022-12-14T19:39:53.858Z,96512.66
2022-12-14T19:44:10.936Z,96512.84
2022-12-14T19:48:28.186Z,96509.31
2022-12-14T19:52:45.270Z,96494.84
2022-12-14T19:57:03.530Z,96497.06
2022-12-14T20:01:20.716Z,96503.22
2022-12-14T20:05:37.946Z,96495.91
2022-12-14T20:09:55.249Z,96497.88
2022-12-14T20:14:14.032Z,96495.56
2022-12-14T20:18:32.366Z,96490.00
2022-12-14T20:22:49.551Z,96500.53
2022-12-14T20:27:06.834Z,96483.69
2022-12-14T20:31:23.880Z,96501.19
2022-12-14T20:35:42.378Z,96505.13
2022-12-14T20:39:59.276Z,96496.63
2022-12-14T20:44:16.545Z,96494.84
2022-12-14T20:48:33.431Z,96508.25
2022-12-14T20:52:50.387Z,96515.41
2022-12-14T20:57:07.239Z,96511.25
2022-12-14T21:01:24.903Z,96510.25
2022-12-14T21:05:42.940Z,96519.19
2022-12-14T21:09:59.983Z,96520.03
2022-12-14T21:14:17.887Z,96506.75
2022-12-14T21:18:34.993Z,96514.91
2022-12-14T21:22:51.884Z,96519.03
2022-12-14T21:27:15.158Z,96516.88
2022-12-14T21:31:32.902Z,96508.75
2022-12-14T21:35:49.988Z,96508.56
2022-12-14T21:40:08.466Z,96508.75
2022-12-14T21:44:26.106Z,96507.75
2022-12-14T21:48:43.264Z,96507.19
2022-12-14T21:53:00.308Z,96516.88
2022-12-14T21:57:41.896Z,96508.63
2022-12-14T22:02:04.702Z,96512.75
2022-12-14T22:06:21.650Z,96504.16
2022-12-14T22:10:38.757Z,96504.00
2022-12-14T22:14:55.835Z,96484.31
2022-12-14T22:19:22.856Z,96487.03
2022-12-14T22:23:43.501Z,96495.16
2022-12-14T22:28:01.092Z,96494.75
2022-12-14T22:32:18.177Z,96484.16
2022-12-14T22:36:36.975Z,96487.22
2022-12-14T22:41:00.470Z,96492.16
2022-12-14T22:45:17.546Z,96496.34
2022-12-14T22:49:34.467Z,96497.88
2022-12-14T22:53:52.344Z,96506.19
2022-12-14T22:58:12.098Z,96513.75
2022-12-14T23:02:30.343Z,96518.34
2022-12-14T23:06:47.666Z,96516.22
2022-12-14T23:11:23.524Z,96513.09
2022-12-14T23:15:58.965Z,96523.00
2022-12-14T23:20:35.063Z,96523.41
2022-12-14T23:25:10.521Z,96517.47
2022-12-14T23:29:46.706Z,96521.84
2022-12-14T23:34:22.655Z,96525.59
2022-12-14T23:38:58.469Z,96520.31
2022-12-14T23:43:36.007Z,96521.31
2022-12-14T23:48:15.568Z,96522.25
2022-12-14T23:52:51.377Z,96528.84
2022-12-14T23:57:27.344Z,96537.13
